Airfield :
LOGIN :

Register | Disclaimer

   EN    FR    IT 

 










Legend :    VFR   Marginal VFR   IFR   Intensive IFR   Very Intensive IFR
Visi :
Ceiling :
>= 8 km
>= 3000ft
5 to 8 km
1000 to 3000 ft
1500m to 5 km
500 to 1000 ft
800 to 1500m
200 to 500 ft
< 800m
< 200 ft
Symbols :   Thunderstorms  Fog  Heavy snow  Heavy precipitations  Wind > 20 kt
SIGMETs :     Misc.  Thunderstorms  Icing  Turbulence  Mountain Waves  Volcanic Ashes






- Airport Elevation : 146 ft
- IATA code : RKE


EKRK - Roskilde Tune

CURRENT METAR :
  • 182050Z AUTO 23015KT 9999 OVC019/// 05/02 Q1008

EXPIRED METARs :
  • 182020Z AUTO 23013KT 9999 BKN023/// BKN045/// 05/01 Q1008
  • 181950Z AUTO 23014KT 9999 SCT028/// BKN047/// 04/02 Q1008
  • 181920Z AUTO 24015KT 9999 SCT046/// 05/02 Q1008
  • 181850Z AUTO 25010KT 9999 -RA OVC019/// 04/03 Q1009
  • 181820Z AUTO 24014KT 9999 -RA BKN034/// 05/02 Q1009

TAF TAF EKRK
Valid from the 18 at 21:00 until the 19 at 06:00 UTC


182011Z 1821/1906 23015KT 9999 BKN020
TEMPO 1821/1824 24015G25KT BKN014 FEW020CB
TEMPO 1900/1906 4000 SHRA BKN008 BKN020CB



MET'MAP, your aeronautical weather chart ! - Copyright ORBIFLY December 2007 - Disclaimer

ORBIFLY MET'MAP TEAM :

Programming & Development : Alexandra Zaïnal
Concept & original design : Baudouin d'Aumeries
Assistance for programming : Marc-Olivier Méhu
Technical & hardware support : Manuel Goepfert

Contact : metmap@orbifly.com




SOURCES & CREDITS :

   NOAA